sensor_id;sensor_type;location;lat;lon;timestamp;P1;durP1;ratioP1;P2;durP2;ratioP2
45522;SDS011;31254;51.680;5.394;2023-08-06T00:01:49;3.83;;;1.90;;
45522;SDS011;31254;51.680;5.394;2023-08-06T00:04:18;2.40;;;1.60;;
45522;SDS011;31254;51.680;5.394;2023-08-06T00:06:47;3.58;;;1.65;;
45522;SDS011;31254;51.680;5.394;2023-08-06T00:09:16;4.13;;;2.05;;
45522;SDS011;31254;51.680;5.394;2023-08-06T00:11:43;2.78;;;1.58;;
45522;SDS011;31254;51.680;5.394;2023-08-06T00:14:10;2.97;;;1.67;;
45522;SDS011;31254;51.680;5.394;2023-08-06T00:16:44;2.17;;;1.63;;
45522;SDS011;31254;51.680;5.394;2023-08-06T00:19:11;3.70;;;1.70;;
45522;SDS011;31254;51.680;5.394;2023-08-06T00:21:38;2.50;;;1.70;;
45522;SDS011;31254;51.680;5.394;2023-08-06T00:24:05;3.28;;;1.60;;
45522;SDS011;31254;51.680;5.394;2023-08-06T00:26:32;3.28;;;1.60;;
45522;SDS011;31254;51.680;5.394;2023-08-06T00:28:58;3.22;;;1.60;;
45522;SDS011;31254;51.680;5.394;2023-08-06T00:31:27;2.63;;;1.80;;
45522;SDS011;31254;51.680;5.394;2023-08-06T00:33:54;3.67;;;1.75;;
45522;SDS011;31254;51.680;5.394;2023-08-06T00:36:21;3.38;;;1.73;;
45522;SDS011;31254;51.680;5.394;2023-08-06T00:38:47;2.67;;;1.70;;
45522;SDS011;31254;51.680;5.394;2023-08-06T00:41:16;3.78;;;1.60;;
45522;SDS011;31254;51.680;5.394;2023-08-06T00:43:43;2.83;;;1.48;;
45522;SDS011;31254;51.680;5.394;2023-08-06T00:46:10;1.95;;;1.40;;
45522;SDS011;31254;51.680;5.394;2023-08-06T00:48:37;2.50;;;1.40;;
45522;SDS011;31254;51.680;5.394;2023-08-06T00:51:04;2.72;;;1.70;;
45522;SDS011;31254;51.680;5.394;2023-08-06T00:53:31;2.33;;;1.50;;
45522;SDS011;31254;51.680;5.394;2023-08-06T00:56:00;4.05;;;1.67;;
45522;SDS011;31254;51.680;5.394;2023-08-06T00:58:27;3.05;;;1.67;;
45522;SDS011;31254;51.680;5.394;2023-08-06T01:00:54;3.25;;;1.67;;
45522;SDS011;31254;51.680;5.394;2023-08-06T01:03:20;4.20;;;1.67;;
45522;SDS011;31254;51.680;5.394;2023-08-06T01:05:47;3.13;;;1.30;;
45522;SDS011;31254;51.680;5.394;2023-08-06T01:14:22;2.03;;;1.45;;
45522;SDS011;31254;51.680;5.394;2023-08-06T01:17:04;2.10;;;1.50;;
45522;SDS011;31254;51.680;5.394;2023-08-06T01:19:31;2.70;;;1.52;;
45522;SDS011;31254;51.680;5.394;2023-08-06T01:21:58;3.28;;;1.50;;
45522;SDS011;31254;51.680;5.394;2023-08-06T01:24:27;2.75;;;1.70;;
45522;SDS011;31254;51.680;5.394;2023-08-06T01:27:03;2.72;;;1.50;;
45522;SDS011;31254;51.680;5.394;2023-08-06T01:29:37;2.95;;;1.48;;
45522;SDS011;31254;51.680;5.394;2023-08-06T01:32:09;3.45;;;1.58;;
45522;SDS011;31254;51.680;5.394;2023-08-06T01:34:39;2.10;;;1.55;;
45522;SDS011;31254;51.680;5.394;2023-08-06T01:37:07;3.08;;;1.70;;
45522;SDS011;31254;51.680;5.394;2023-08-06T01:39:35;1.98;;;1.35;;
45522;SDS011;31254;51.680;5.394;2023-08-06T01:42:02;2.67;;;1.60;;
45522;SDS011;31254;51.680;5.394;2023-08-06T01:44:29;2.72;;;1.75;;
45522;SDS011;31254;51.680;5.394;2023-08-06T01:46:56;3.97;;;1.73;;
45522;SDS011;31254;51.680;5.394;2023-08-06T01:49:22;2.47;;;1.60;;
45522;SDS011;31254;51.680;5.394;2023-08-06T01:51:49;2.45;;;1.35;;
45522;SDS011;31254;51.680;5.394;2023-08-06T01:54:16;2.17;;;1.67;;
45522;SDS011;31254;51.680;5.394;2023-08-06T01:56:43;4.20;;;1.80;;
45522;SDS011;31254;51.680;5.394;2023-08-06T01:59:10;3.08;;;1.70;;
45522;SDS011;31254;51.680;5.394;2023-08-06T02:01:38;2.97;;;1.70;;
45522;SDS011;31254;51.680;5.394;2023-08-06T02:04:08;2.00;;;1.50;;
45522;SDS011;31254;51.680;5.394;2023-08-06T02:06:34;3.30;;;1.60;;
45522;SDS011;31254;51.680;5.394;2023-08-06T02:09:04;2.47;;;1.40;;
45522;SDS011;31254;51.680;5.394;2023-08-06T02:11:30;3.15;;;1.92;;
45522;SDS011;31254;51.680;5.394;2023-08-06T02:13:59;2.70;;;1.67;;
45522;SDS011;31254;51.680;5.394;2023-08-06T02:16:26;3.70;;;1.75;;
45522;SDS011;31254;51.680;5.394;2023-08-06T02:18:53;2.42;;;1.60;;
45522;SDS011;31254;51.680;5.394;2023-08-06T02:21:22;2.75;;;1.75;;
45522;SDS011;31254;51.680;5.394;2023-08-06T02:23:51;2.17;;;1.48;;
45522;SDS011;31254;51.680;5.394;2023-08-06T02:26:20;3.92;;;1.42;;
45522;SDS011;31254;51.680;5.394;2023-08-06T02:28:49;2.47;;;1.42;;
45522;SDS011;31254;51.680;5.394;2023-08-06T02:31:16;4.07;;;2.13;;
45522;SDS011;31254;51.680;5.394;2023-08-06T02:33:42;2.25;;;1.60;;
45522;SDS011;31254;51.680;5.394;2023-08-06T02:36:09;2.55;;;1.88;;
45522;SDS011;31254;51.680;5.394;2023-08-06T02:38:36;2.67;;;1.60;;
45522;SDS011;31254;51.680;5.394;2023-08-06T02:41:03;2.63;;;1.50;;
45522;SDS011;31254;51.680;5.394;2023-08-06T02:43:33;2.13;;;1.50;;
45522;SDS011;31254;51.680;5.394;2023-08-06T02:46:02;2.58;;;1.38;;
45522;SDS011;31254;51.680;5.394;2023-08-06T02:48:29;3.80;;;1.58;;
45522;SDS011;31254;51.680;5.394;2023-08-06T02:50:58;2.08;;;1.40;;
45522;SDS011;31254;51.680;5.394;2023-08-06T02:53:31;2.53;;;1.65;;
45522;SDS011;31254;51.680;5.394;2023-08-06T02:56:00;2.03;;;1.42;;
45522;SDS011;31254;51.680;5.394;2023-08-06T02:58:27;2.35;;;1.52;;
45522;SDS011;31254;51.680;5.394;2023-08-06T03:01:03;3.08;;;1.70;;
45522;SDS011;31254;51.680;5.394;2023-08-06T03:03:32;3.80;;;1.48;;
45522;SDS011;31254;51.680;5.394;2023-08-06T03:05:59;2.17;;;1.50;;
45522;SDS011;31254;51.680;5.394;2023-08-06T03:08:27;3.33;;;1.70;;
45522;SDS011;31254;51.680;5.394;2023-08-06T03:10:54;4.13;;;1.50;;
45522;SDS011;31254;51.680;5.394;2023-08-06T03:13:20;1.88;;;1.40;;
45522;SDS011;31254;51.680;5.394;2023-08-06T03:15:57;3.08;;;1.40;;
45522;SDS011;31254;51.680;5.394;2023-08-06T03:18:25;1.85;;;1.50;;
45522;SDS011;31254;51.680;5.394;2023-08-06T03:20:52;2.08;;;1.63;;
45522;SDS011;31254;51.680;5.394;2023-08-06T03:23:20;2.47;;;1.38;;
45522;SDS011;31254;51.680;5.394;2023-08-06T03:25:47;2.33;;;1.35;;
45522;SDS011;31254;51.680;5.394;2023-08-06T03:28:13;2.50;;;1.50;;
45522;SDS011;31254;51.680;5.394;2023-08-06T03:30:40;2.15;;;1.60;;
45522;SDS011;31254;51.680;5.394;2023-08-06T03:33:07;1.65;;;1.33;;
45522;SDS011;31254;51.680;5.394;2023-08-06T03:35:34;2.67;;;1.60;;
45522;SDS011;31254;51.680;5.394;2023-08-06T03:38:03;2.22;;;1.40;;
45522;SDS011;31254;51.680;5.394;2023-08-06T03:40:29;2.13;;;1.15;;
45522;SDS011;31254;51.680;5.394;2023-08-06T03:42:56;3.00;;;1.60;;
45522;SDS011;31254;51.680;5.394;2023-08-06T03:45:25;2.10;;;1.40;;
45522;SDS011;31254;51.680;5.394;2023-08-06T03:47:54;1.77;;;1.45;;
45522;SDS011;31254;51.680;5.394;2023-08-06T03:50:21;1.70;;;1.30;;
45522;SDS011;31254;51.680;5.394;2023-08-06T03:52:47;3.22;;;1.55;;
45522;SDS011;31254;51.680;5.394;2023-08-06T03:55:14;1.60;;;1.15;;
45522;SDS011;31254;51.680;5.394;2023-08-06T03:57:40;1.90;;;1.30;;
45522;SDS011;31254;51.680;5.394;2023-08-06T04:00:09;2.03;;;1.27;;
45522;SDS011;31254;51.680;5.394;2023-08-06T04:02:39;2.92;;;1.65;;
45522;SDS011;31254;51.680;5.394;2023-08-06T04:05:06;2.05;;;1.40;;
45522;SDS011;31254;51.680;5.394;2023-08-06T04:07:33;1.80;;;1.23;;
45522;SDS011;31254;51.680;5.394;2023-08-06T04:10:01;2.75;;;1.45;;
45522;SDS011;31254;51.680;5.394;2023-08-06T04:12:30;2.95;;;1.50;;
45522;SDS011;31254;51.680;5.394;2023-08-06T04:14:59;1.55;;;1.30;;
45522;SDS011;31254;51.680;5.394;2023-08-06T04:17:27;2.08;;;1.30;;
45522;SDS011;31254;51.680;5.394;2023-08-06T04:19:56;3.45;;;1.40;;
45522;SDS011;31254;51.680;5.394;2023-08-06T04:22:24;3.85;;;1.40;;
45522;SDS011;31254;51.680;5.394;2023-08-06T04:24:53;2.42;;;1.30;;
45522;SDS011;31254;51.680;5.394;2023-08-06T04:27:20;2.45;;;1.50;;
45522;SDS011;31254;51.680;5.394;2023-08-06T04:29:47;2.45;;;1.65;;
45522;SDS011;31254;51.680;5.394;2023-08-06T04:32:16;2.17;;;1.30;;
45522;SDS011;31254;51.680;5.394;2023-08-06T04:34:43;1.98;;;1.50;;
45522;SDS011;31254;51.680;5.394;2023-08-06T04:37:10;1.98;;;1.25;;
45522;SDS011;31254;51.680;5.394;2023-08-06T04:39:39;1.92;;;1.45;;
45522;SDS011;31254;51.680;5.394;2023-08-06T04:42:06;2.72;;;1.50;;
45522;SDS011;31254;51.680;5.394;2023-08-06T04:44:37;3.03;;;1.60;;
45522;SDS011;31254;51.680;5.394;2023-08-06T04:47:04;2.42;;;1.67;;
45522;SDS011;31254;51.680;5.394;2023-08-06T04:49:31;3.05;;;1.48;;
45522;SDS011;31254;51.680;5.394;2023-08-06T04:51:57;3.97;;;1.60;;
45522;SDS011;31254;51.680;5.394;2023-08-06T04:54:27;2.45;;;1.30;;
45522;SDS011;31254;51.680;5.394;2023-08-06T04:56:56;1.65;;;1.23;;
45522;SDS011;31254;51.680;5.394;2023-08-06T04:59:22;2.95;;;1.35;;
45522;SDS011;31254;51.680;5.394;2023-08-06T05:01:49;2.17;;;1.60;;
45522;SDS011;31254;51.680;5.394;2023-08-06T05:04:16;2.30;;;1.63;;
45522;SDS011;31254;51.680;5.394;2023-08-06T05:06:43;3.17;;;1.50;;
45522;SDS011;31254;51.680;5.394;2023-08-06T05:09:10;2.70;;;1.63;;
45522;SDS011;31254;51.680;5.394;2023-08-06T05:11:39;2.78;;;1.52;;
45522;SDS011;31254;51.680;5.394;2023-08-06T05:14:10;2.70;;;1.70;;
45522;SDS011;31254;51.680;5.394;2023-08-06T05:16:37;2.55;;;1.50;;
45522;SDS011;31254;51.680;5.394;2023-08-06T05:19:06;3.30;;;1.50;;
45522;SDS011;31254;51.680;5.394;2023-08-06T05:21:32;2.85;;;1.48;;
45522;SDS011;31254;51.680;5.394;2023-08-06T05:23:59;3.10;;;1.50;;
45522;SDS011;31254;51.680;5.394;2023-08-06T05:26:26;2.08;;;1.40;;
45522;SDS011;31254;51.680;5.394;2023-08-06T05:28:55;2.67;;;1.60;;
45522;SDS011;31254;51.680;5.394;2023-08-06T05:31:21;2.67;;;1.40;;
45522;SDS011;31254;51.680;5.394;2023-08-06T05:33:48;1.98;;;1.52;;
45522;SDS011;31254;51.680;5.394;2023-08-06T05:36:15;2.40;;;1.60;;
45522;SDS011;31254;51.680;5.394;2023-08-06T05:38:44;2.85;;;1.60;;
45522;SDS011;31254;51.680;5.394;2023-08-06T05:41:10;4.55;;;1.60;;
45522;SDS011;31254;51.680;5.394;2023-08-06T05:43:37;2.80;;;1.60;;
45522;SDS011;31254;51.680;5.394;2023-08-06T05:46:04;2.20;;;1.60;;
45522;SDS011;31254;51.680;5.394;2023-08-06T05:48:30;2.45;;;1.42;;
45522;SDS011;31254;51.680;5.394;2023-08-06T05:51:02;2.25;;;1.60;;
45522;SDS011;31254;51.680;5.394;2023-08-06T05:53:29;1.95;;;1.35;;
45522;SDS011;31254;51.680;5.394;2023-08-06T05:55:55;3.22;;;1.70;;
45522;SDS011;31254;51.680;5.394;2023-08-06T05:58:24;2.28;;;1.38;;
45522;SDS011;31254;51.680;5.394;2023-08-06T06:00:52;1.98;;;1.50;;
45522;SDS011;31254;51.680;5.394;2023-08-06T06:03:19;3.80;;;1.85;;
45522;SDS011;31254;51.680;5.394;2023-08-06T06:05:45;1.85;;;1.42;;
45522;SDS011;31254;51.680;5.394;2023-08-06T06:08:12;2.30;;;1.42;;
45522;SDS011;31254;51.680;5.394;2023-08-06T06:10:39;2.22;;;1.60;;
45522;SDS011;31254;51.680;5.394;2023-08-06T06:13:05;5.50;;;1.70;;
45522;SDS011;31254;51.680;5.394;2023-08-06T06:15:35;2.63;;;1.83;;
45522;SDS011;31254;51.680;5.394;2023-08-06T06:18:07;2.38;;;1.50;;
45522;SDS011;31254;51.680;5.394;2023-08-06T06:20:34;2.45;;;1.65;;
45522;SDS011;31254;51.680;5.394;2023-08-06T06:23:00;2.95;;;1.85;;
45522;SDS011;31254;51.680;5.394;2023-08-06T06:25:27;3.85;;;1.83;;
45522;SDS011;31254;51.680;5.394;2023-08-06T06:27:53;3.83;;;2.10;;
45522;SDS011;31254;51.680;5.394;2023-08-06T06:30:20;3.40;;;1.92;;
45522;SDS011;31254;51.680;5.394;2023-08-06T06:32:47;3.45;;;1.98;;
45522;SDS011;31254;51.680;5.394;2023-08-06T06:35:18;4.75;;;1.90;;
45522;SDS011;31254;51.680;5.394;2023-08-06T06:37:48;3.17;;;2.10;;
45522;SDS011;31254;51.680;5.394;2023-08-06T06:40:15;3.60;;;2.40;;
45522;SDS011;31254;51.680;5.394;2023-08-06T06:42:42;2.88;;;1.98;;
45522;SDS011;31254;51.680;5.394;2023-08-06T06:45:09;5.15;;;2.40;;
45522;SDS011;31254;51.680;5.394;2023-08-06T06:47:38;5.88;;;2.25;;
45522;SDS011;31254;51.680;5.394;2023-08-06T06:50:05;2.90;;;2.03;;
45522;SDS011;31254;51.680;5.394;2023-08-06T06:52:32;4.28;;;2.58;;
45522;SDS011;31254;51.680;5.394;2023-08-06T06:54:59;4.40;;;2.30;;
45522;SDS011;31254;51.680;5.394;2023-08-06T06:57:26;2.88;;;2.00;;
45522;SDS011;31254;51.680;5.394;2023-08-06T06:59:52;4.53;;;2.00;;
45522;SDS011;31254;51.680;5.394;2023-08-06T07:02:21;3.22;;;1.83;;
45522;SDS011;31254;51.680;5.394;2023-08-06T07:04:49;5.03;;;2.53;;
45522;SDS011;31254;51.680;5.394;2023-08-06T07:07:18;4.60;;;1.98;;
45522;SDS011;31254;51.680;5.394;2023-08-06T07:09:47;2.83;;;2.10;;
45522;SDS011;31254;51.680;5.394;2023-08-06T07:12:16;3.67;;;2.30;;
45522;SDS011;31254;51.680;5.394;2023-08-06T07:14:42;4.10;;;2.75;;
45522;SDS011;31254;51.680;5.394;2023-08-06T07:17:11;3.78;;;2.30;;
45522;SDS011;31254;51.680;5.394;2023-08-06T07:19:38;3.58;;;2.58;;
45522;SDS011;31254;51.680;5.394;2023-08-06T07:22:05;5.30;;;2.50;;
45522;SDS011;31254;51.680;5.394;2023-08-06T07:24:32;2.40;;;1.95;;
45522;SDS011;31254;51.680;5.394;2023-08-06T07:26:58;4.70;;;1.90;;
45522;SDS011;31254;51.680;5.394;2023-08-06T07:29:27;1.85;;;1.33;;
45522;SDS011;31254;51.680;5.394;2023-08-06T07:31:54;2.15;;;1.17;;
45522;SDS011;31254;51.680;5.394;2023-08-06T07:34:21;2.83;;;1.30;;
45522;SDS011;31254;51.680;5.394;2023-08-06T07:36:48;1.50;;;1.30;;
45522;SDS011;31254;51.680;5.394;2023-08-06T07:39:17;1.92;;;0.95;;
45522;SDS011;31254;51.680;5.394;2023-08-06T07:41:44;1.80;;;1.17;;
45522;SDS011;31254;51.680;5.394;2023-08-06T07:44:12;2.67;;;1.20;;
45522;SDS011;31254;51.680;5.394;2023-08-06T07:46:38;1.48;;;1.00;;
45522;SDS011;31254;51.680;5.394;2023-08-06T07:49:05;2.05;;;1.52;;
45522;SDS011;31254;51.680;5.394;2023-08-06T07:51:35;1.75;;;1.02;;
45522;SDS011;31254;51.680;5.394;2023-08-06T07:54:04;2.35;;;1.30;;
45522;SDS011;31254;51.680;5.394;2023-08-06T07:56:31;3.15;;;1.40;;
45522;SDS011;31254;51.680;5.394;2023-08-06T07:58:58;2.45;;;1.40;;
45522;SDS011;31254;51.680;5.394;2023-08-06T08:01:25;2.63;;;1.50;;
45522;SDS011;31254;51.680;5.394;2023-08-06T08:03:51;3.03;;;1.35;;
45522;SDS011;31254;51.680;5.394;2023-08-06T08:06:21;2.05;;;1.40;;
45522;SDS011;31254;51.680;5.394;2023-08-06T08:08:50;2.00;;;1.58;;
45522;SDS011;31254;51.680;5.394;2023-08-06T08:11:20;3.00;;;1.55;;
45522;SDS011;31254;51.680;5.394;2023-08-06T08:13:47;3.00;;;1.80;;
45522;SDS011;31254;51.680;5.394;2023-08-06T08:16:14;3.45;;;1.90;;
45522;SDS011;31254;51.680;5.394;2023-08-06T08:18:40;2.38;;;1.63;;
45522;SDS011;31254;51.680;5.394;2023-08-06T08:21:07;7.82;;;1.83;;
45522;SDS011;31254;51.680;5.394;2023-08-06T08:23:36;2.90;;;1.60;;
45522;SDS011;31254;51.680;5.394;2023-08-06T08:26:05;3.03;;;1.63;;
45522;SDS011;31254;51.680;5.394;2023-08-06T08:28:32;3.42;;;1.60;;
45522;SDS011;31254;51.680;5.394;2023-08-06T08:31:01;2.80;;;1.70;;
45522;SDS011;31254;51.680;5.394;2023-08-06T08:33:30;5.30;;;1.80;;
45522;SDS011;31254;51.680;5.394;2023-08-06T08:35:56;4.22;;;2.00;;
45522;SDS011;31254;51.680;5.394;2023-08-06T08:38:23;2.72;;;1.60;;
45522;SDS011;31254;51.680;5.394;2023-08-06T08:40:51;3.95;;;1.83;;
45522;SDS011;31254;51.680;5.394;2023-08-06T08:43:20;3.55;;;1.50;;
45522;SDS011;31254;51.680;5.394;2023-08-06T08:45:52;3.17;;;1.65;;
45522;SDS011;31254;51.680;5.394;2023-08-06T08:48:25;2.85;;;1.50;;
45522;SDS011;31254;51.680;5.394;2023-08-06T08:50:55;4.93;;;1.77;;
45522;SDS011;31254;51.680;5.394;2023-08-06T08:53:22;3.92;;;1.65;;
45522;SDS011;31254;51.680;5.394;2023-08-06T08:55:50;3.55;;;1.50;;
45522;SDS011;31254;51.680;5.394;2023-08-06T08:58:16;4.28;;;1.63;;
45522;SDS011;31254;51.680;5.394;2023-08-06T09:00:45;3.22;;;1.38;;
45522;SDS011;31254;51.680;5.394;2023-08-06T09:03:15;3.65;;;1.63;;
45522;SDS011;31254;51.680;5.394;2023-08-06T09:05:45;4.00;;;1.45;;
45522;SDS011;31254;51.680;5.394;2023-08-06T09:08:18;3.72;;;1.60;;
45522;SDS011;31254;51.680;5.394;2023-08-06T09:10:50;3.03;;;1.13;;
45522;SDS011;31254;51.680;5.394;2023-08-06T09:13:20;3.88;;;1.30;;
45522;SDS011;31254;51.680;5.394;2023-08-06T09:15:47;3.95;;;1.30;;
45522;SDS011;31254;51.680;5.394;2023-08-06T09:18:21;7.60;;;1.50;;
45522;SDS011;31254;51.680;5.394;2023-08-06T09:20:53;6.95;;;1.75;;
45522;SDS011;31254;51.680;5.394;2023-08-06T09:23:19;4.57;;;1.45;;
45522;SDS011;31254;51.680;5.394;2023-08-06T09:25:48;3.20;;;1.13;;
45522;SDS011;31254;51.680;5.394;2023-08-06T09:28:17;4.90;;;1.50;;
45522;SDS011;31254;51.680;5.394;2023-08-06T09:30:44;4.57;;;1.63;;
45522;SDS011;31254;51.680;5.394;2023-08-06T09:33:17;2.53;;;1.05;;
45522;SDS011;31254;51.680;5.394;2023-08-06T09:35:50;2.38;;;1.27;;
45522;SDS011;31254;51.680;5.394;2023-08-06T09:38:21;4.35;;;1.30;;
45522;SDS011;31254;51.680;5.394;2023-08-06T09:40:47;2.22;;;1.10;;
45522;SDS011;31254;51.680;5.394;2023-08-06T09:43:14;2.60;;;1.40;;
45522;SDS011;31254;51.680;5.394;2023-08-06T09:45:48;3.70;;;1.40;;
45522;SDS011;31254;51.680;5.394;2023-08-06T09:48:17;2.55;;;1.30;;
45522;SDS011;31254;51.680;5.394;2023-08-06T09:50:50;3.38;;;1.30;;
45522;SDS011;31254;51.680;5.394;2023-08-06T09:53:18;2.72;;;1.30;;
45522;SDS011;31254;51.680;5.394;2023-08-06T09:55:46;2.85;;;1.20;;
45522;SDS011;31254;51.680;5.394;2023-08-06T09:58:13;2.58;;;1.55;;
45522;SDS011;31254;51.680;5.394;2023-08-06T10:00:43;4.70;;;1.20;;
45522;SDS011;31254;51.680;5.394;2023-08-06T10:03:10;3.28;;;1.63;;
45522;SDS011;31254;51.680;5.394;2023-08-06T10:05:40;2.97;;;1.60;;
45522;SDS011;31254;51.680;5.394;2023-08-06T10:08:07;3.65;;;1.42;;
45522;SDS011;31254;51.680;5.394;2023-08-06T10:10:34;5.10;;;1.65;;
45522;SDS011;31254;51.680;5.394;2023-08-06T10:13:03;4.63;;;1.30;;
45522;SDS011;31254;51.680;5.394;2023-08-06T10:15:32;4.03;;;1.48;;
45522;SDS011;31254;51.680;5.394;2023-08-06T10:18:00;2.92;;;1.48;;
45522;SDS011;31254;51.680;5.394;2023-08-06T10:20:32;5.10;;;1.55;;
45522;SDS011;31254;51.680;5.394;2023-08-06T10:23:00;3.35;;;1.48;;
45522;SDS011;31254;51.680;5.394;2023-08-06T10:25:34;4.47;;;1.38;;
45522;SDS011;31254;51.680;5.394;2023-08-06T10:28:08;2.85;;;1.48;;
45522;SDS011;31254;51.680;5.394;2023-08-06T10:30:45;3.63;;;1.50;;
45522;SDS011;31254;51.680;5.394;2023-08-06T10:33:13;4.45;;;1.52;;
45522;SDS011;31254;51.680;5.394;2023-08-06T10:38:17;2.58;;;1.30;;
45522;SDS011;31254;51.680;5.394;2023-08-06T10:40:49;4.50;;;1.50;;
45522;SDS011;31254;51.680;5.394;2023-08-06T10:43:26;3.40;;;1.25;;
45522;SDS011;31254;51.680;5.394;2023-08-06T10:45:54;2.92;;;1.23;;
45522;SDS011;31254;51.680;5.394;2023-08-06T10:48:32;2.95;;;1.27;;
45522;SDS011;31254;51.680;5.394;2023-08-06T10:51:01;3.92;;;1.45;;
45522;SDS011;31254;51.680;5.394;2023-08-06T10:53:28;2.58;;;1.30;;
45522;SDS011;31254;51.680;5.394;2023-08-06T10:55:59;3.35;;;1.70;;
45522;SDS011;31254;51.680;5.394;2023-08-06T10:58:33;3.53;;;1.50;;
45522;SDS011;31254;51.680;5.394;2023-08-06T11:01:02;3.58;;;1.70;;
45522;SDS011;31254;51.680;5.394;2023-08-06T11:03:29;5.63;;;1.65;;
45522;SDS011;31254;51.680;5.394;2023-08-06T11:05:59;4.65;;;1.83;;
45522;SDS011;31254;51.680;5.394;2023-08-06T11:08:26;3.97;;;1.60;;
45522;SDS011;31254;51.680;5.394;2023-08-06T11:10:54;4.45;;;1.73;;
45522;SDS011;31254;51.680;5.394;2023-08-06T11:13:29;2.90;;;1.50;;
45522;SDS011;31254;51.680;5.394;2023-08-06T11:15:59;6.80;;;1.73;;
45522;SDS011;31254;51.680;5.394;2023-08-06T11:18:26;4.57;;;1.80;;
45522;SDS011;31254;51.680;5.394;2023-08-06T11:20:52;3.63;;;1.67;;
45522;SDS011;31254;51.680;5.394;2023-08-06T11:23:19;4.53;;;1.60;;
45522;SDS011;31254;51.680;5.394;2023-08-06T11:25:48;3.35;;;1.40;;
45522;SDS011;31254;51.680;5.394;2023-08-06T11:28:19;2.78;;;1.40;;
45522;SDS011;31254;51.680;5.394;2023-08-06T11:30:48;3.78;;;1.60;;
45522;SDS011;31254;51.680;5.394;2023-08-06T11:33:25;2.60;;;1.33;;
45522;SDS011;31254;51.680;5.394;2023-08-06T11:35:58;3.20;;;1.50;;
45522;SDS011;31254;51.680;5.394;2023-08-06T11:38:29;2.22;;;1.40;;
45522;SDS011;31254;51.680;5.394;2023-08-06T11:40:58;2.80;;;1.60;;
45522;SDS011;31254;51.680;5.394;2023-08-06T11:43:25;3.08;;;1.45;;
45522;SDS011;31254;51.680;5.394;2023-08-06T11:45:52;4.10;;;1.58;;
45522;SDS011;31254;51.680;5.394;2023-08-06T11:48:25;3.72;;;1.50;;
45522;SDS011;31254;51.680;5.394;2023-08-06T11:50:54;4.03;;;1.80;;
45522;SDS011;31254;51.680;5.394;2023-08-06T11:53:21;4.25;;;1.70;;
45522;SDS011;31254;51.680;5.394;2023-08-06T11:55:48;4.93;;;1.52;;
45522;SDS011;31254;51.680;5.394;2023-08-06T11:58:16;3.15;;;1.20;;
45522;SDS011;31254;51.680;5.394;2023-08-06T12:00:43;3.22;;;1.30;;
45522;SDS011;31254;51.680;5.394;2023-08-06T12:03:10;4.07;;;1.48;;
45522;SDS011;31254;51.680;5.394;2023-08-06T12:05:37;8.00;;;1.88;;
45522;SDS011;31254;51.680;5.394;2023-08-06T12:08:05;3.30;;;1.30;;
45522;SDS011;31254;51.680;5.394;2023-08-06T12:10:32;5.32;;;1.50;;
45522;SDS011;31254;51.680;5.394;2023-08-06T12:12:59;3.60;;;2.05;;
45522;SDS011;31254;51.680;5.394;2023-08-06T12:15:31;3.78;;;1.67;;
45522;SDS011;31254;51.680;5.394;2023-08-06T12:17:59;2.22;;;1.38;;
45522;SDS011;31254;51.680;5.394;2023-08-06T12:20:26;2.85;;;1.60;;
45522;SDS011;31254;51.680;5.394;2023-08-06T12:22:54;2.15;;;1.30;;
45522;SDS011;31254;51.680;5.394;2023-08-06T12:25:23;2.97;;;1.33;;
45522;SDS011;31254;51.680;5.394;2023-08-06T12:27:50;5.43;;;1.70;;
45522;SDS011;31254;51.680;5.394;2023-08-06T12:30:17;3.42;;;1.33;;
45522;SDS011;31254;51.680;5.394;2023-08-06T12:32:44;2.38;;;1.48;;
45522;SDS011;31254;51.680;5.394;2023-08-06T12:35:11;1.98;;;1.17;;
45522;SDS011;31254;51.680;5.394;2023-08-06T12:37:40;3.85;;;1.10;;
45522;SDS011;31254;51.680;5.394;2023-08-06T12:40:08;3.90;;;1.30;;
45522;SDS011;31254;51.680;5.394;2023-08-06T12:42:55;3.08;;;1.35;;
45522;SDS011;31254;51.680;5.394;2023-08-06T12:45:22;6.28;;;1.30;;
45522;SDS011;31254;51.680;5.394;2023-08-06T12:47:48;3.50;;;1.48;;
45522;SDS011;31254;51.680;5.394;2023-08-06T12:50:16;3.17;;;1.52;;
45522;SDS011;31254;51.680;5.394;2023-08-06T12:52:44;3.70;;;1.30;;
45522;SDS011;31254;51.680;5.394;2023-08-06T12:55:10;3.85;;;1.45;;
45522;SDS011;31254;51.680;5.394;2023-08-06T12:57:38;2.92;;;1.30;;
45522;SDS011;31254;51.680;5.394;2023-08-06T13:00:25;2.78;;;1.30;;
45522;SDS011;31254;51.680;5.394;2023-08-06T13:02:54;2.20;;;1.17;;
45522;SDS011;31254;51.680;5.394;2023-08-06T13:05:21;3.38;;;1.23;;
45522;SDS011;31254;51.680;5.394;2023-08-06T13:07:48;4.43;;;1.38;;
45522;SDS011;31254;51.680;5.394;2023-08-06T13:10:15;4.05;;;1.40;;
45522;SDS011;31254;51.680;5.394;2023-08-06T13:12:42;2.33;;;1.40;;
45522;SDS011;31254;51.680;5.394;2023-08-06T13:15:11;2.53;;;1.35;;
45522;SDS011;31254;51.680;5.394;2023-08-06T13:17:40;3.90;;;1.60;;
45522;SDS011;31254;51.680;5.394;2023-08-06T13:20:09;3.05;;;1.30;;
45522;SDS011;31254;51.680;5.394;2023-08-06T13:22:38;2.60;;;1.20;;
45522;SDS011;31254;51.680;5.394;2023-08-06T13:25:07;2.20;;;1.30;;
45522;SDS011;31254;51.680;5.394;2023-08-06T13:27:33;2.20;;;1.38;;
45522;SDS011;31254;51.680;5.394;2023-08-06T13:30:03;3.17;;;1.20;;
45522;SDS011;31254;51.680;5.394;2023-08-06T13:32:30;2.72;;;1.20;;
45522;SDS011;31254;51.680;5.394;2023-08-06T13:35:01;2.28;;;1.40;;
45522;SDS011;31254;51.680;5.394;2023-08-06T13:37:27;2.25;;;1.08;;
45522;SDS011;31254;51.680;5.394;2023-08-06T13:39:54;2.38;;;1.30;;
45522;SDS011;31254;51.680;5.394;2023-08-06T13:42:22;2.53;;;1.38;;
45522;SDS011;31254;51.680;5.394;2023-08-06T13:44:51;3.97;;;1.10;;
45522;SDS011;31254;51.680;5.394;2023-08-06T13:47:20;2.50;;;1.08;;
45522;SDS011;31254;51.680;5.394;2023-08-06T13:49:49;3.35;;;1.20;;
45522;SDS011;31254;51.680;5.394;2023-08-06T13:52:16;1.95;;;1.10;;
45522;SDS011;31254;51.680;5.394;2023-08-06T13:54:48;2.53;;;0.95;;
45522;SDS011;31254;51.680;5.394;2023-08-06T13:57:18;2.35;;;1.17;;
45522;SDS011;31254;51.680;5.394;2023-08-06T13:59:47;2.85;;;1.10;;
45522;SDS011;31254;51.680;5.394;2023-08-06T14:02:13;2.65;;;1.15;;
45522;SDS011;31254;51.680;5.394;2023-08-06T14:04:40;2.30;;;1.08;;
45522;SDS011;31254;51.680;5.394;2023-08-06T14:07:09;1.70;;;0.82;;
45522;SDS011;31254;51.680;5.394;2023-08-06T14:09:36;1.40;;;0.93;;
45522;SDS011;31254;51.680;5.394;2023-08-06T14:12:02;4.38;;;1.25;;
45522;SDS011;31254;51.680;5.394;2023-08-06T14:14:32;1.63;;;0.73;;
45522;SDS011;31254;51.680;5.394;2023-08-06T14:16:59;1.63;;;1.10;;
45522;SDS011;31254;51.680;5.394;2023-08-06T14:19:31;3.65;;;1.10;;
45522;SDS011;31254;51.680;5.394;2023-08-06T14:22:00;4.57;;;1.25;;
45522;SDS011;31254;51.680;5.394;2023-08-06T14:24:27;3.20;;;1.10;;
45522;SDS011;31254;51.680;5.394;2023-08-06T14:26:54;3.30;;;1.10;;
45522;SDS011;31254;51.680;5.394;2023-08-06T14:29:23;3.00;;;1.10;;
45522;SDS011;31254;51.680;5.394;2023-08-06T14:31:50;2.03;;;0.90;;
45522;SDS011;31254;51.680;5.394;2023-08-06T14:34:17;2.15;;;0.90;;
45522;SDS011;31254;51.680;5.394;2023-08-06T14:36:44;2.13;;;0.80;;
45522;SDS011;31254;51.680;5.394;2023-08-06T14:39:10;1.30;;;0.85;;
45522;SDS011;31254;51.680;5.394;2023-08-06T14:41:37;2.10;;;0.82;;
45522;SDS011;31254;51.680;5.394;2023-08-06T14:44:04;3.05;;;0.90;;
45522;SDS011;31254;51.680;5.394;2023-08-06T14:46:30;5.07;;;1.10;;
45522;SDS011;31254;51.680;5.394;2023-08-06T14:48:57;4.05;;;0.93;;
45522;SDS011;31254;51.680;5.394;2023-08-06T14:51:24;2.05;;;0.93;;
45522;SDS011;31254;51.680;5.394;2023-08-06T14:53:50;3.95;;;0.80;;
45522;SDS011;31254;51.680;5.394;2023-08-06T14:56:17;2.60;;;0.73;;
45522;SDS011;31254;51.680;5.394;2023-08-06T14:58:46;1.92;;;0.60;;
45522;SDS011;31254;51.680;5.394;2023-08-06T15:01:13;2.22;;;0.80;;
45522;SDS011;31254;51.680;5.394;2023-08-06T15:03:39;2.22;;;0.90;;